Time;durP1;ratioP1;P1;durP2;ratioP2;P2;SDS_P1;SDS_P2;PMS_P1;PMS_P2;Temp;Humidity;BMP_temperature;BMP_pressure;BME280_temperature;BME280_humidity;BME280_pressure;Samples;Min_cycle;Max_cycle;Signal;HPM_P1;HPM_P2
2020/12/01 00:00:18;;;;;;;34.17;22.67;;;10.80;99.90;;;;;;5073204;28;20041;-93
2020/12/01 00:02:45;;;;;;;36.13;23.05;;;10.80;99.90;;;;;;5059796;28;20098;-92
2020/12/01 00:05:14;;;;;;;37.35;23.83;;;10.80;99.90;;;;;;5056096;28;20049;-92
2020/12/01 00:07:42;;;;;;;41.40;23.83;;;10.80;99.90;;;;;;5069183;28;20056;-93
2020/12/01 00:10:14;;;;;;;41.20;24.73;;;10.80;99.90;;;;;;5075405;28;20063;-92
2020/12/01 00:12:45;;;;;;;35.83;24.10;;;10.80;99.90;;;;;;5067705;28;20075;-92
2020/12/01 00:15:15;;;;;;;38.42;24.75;;;10.80;99.90;;;;;;5059709;28;20060;-92
2020/12/01 00:17:44;;;;;;;41.78;25.42;;;10.80;99.90;;;;;;5059759;28;20131;-92
2020/12/01 00:20:13;;;;;;;41.05;25.42;;;10.80;99.90;;;;;;5076120;28;20056;-92
2020/12/01 00:22:40;;;;;;;47.35;27.25;;;10.80;99.90;;;;;;5063039;28;20056;-91
2020/12/01 00:25:08;;;;;;;46.63;28.33;;;10.80;99.90;;;;;;5066374;28;20057;-92
2020/12/01 00:27:36;;;;;;;45.70;28.25;;;10.80;99.90;;;;;;5072447;28;20048;-93
2020/12/01 00:30:25;;;;;;;48.00;28.95;;;10.80;99.90;;;;;;5061600;28;20131;-93
2020/12/01 00:32:53;;;;;;;44.65;29.35;;;10.80;99.90;;;;;;5058639;28;20050;-92
2020/12/01 00:35:39;;;;;;;50.80;29.85;;;10.80;99.90;;;;;;5071842;28;20451;-92
2020/12/01 00:38:07;;;;;;;50.00;28.98;;;10.90;99.90;;;;;;5059258;28;20045;-92
2020/12/01 00:40:34;;;;;;;53.30;29.95;;;10.80;99.90;;;;;;5063244;28;20056;-92
2020/12/01 00:43:01;;;;;;;52.65;31.27;;;10.80;99.90;;;;;;5063695;28;20044;-93
2020/12/01 00:45:28;;;;;;;60.13;32.65;;;10.80;99.90;;;;;;5060460;28;20056;-92
2020/12/01 00:47:57;;;;;;;56.65;34.25;;;10.80;99.90;;;;;;5073312;28;20041;-92
2020/12/01 00:50:25;;;;;;;57.60;35.08;;;10.90;99.90;;;;;;5072145;28;20052;-92
2020/12/01 00:52:53;;;;;;;63.80;36.10;;;10.90;99.90;;;;;;5075196;28;20094;-92
2020/12/01 00:55:20;;;;;;;62.05;37.47;;;10.90;99.90;;;;;;5065957;28;20466;-92
2020/12/01 00:57:47;;;;;;;62.33;38.90;;;10.90;99.90;;;;;;5063257;28;20052;-93
2020/12/01 01:00:23;;;;;;;66.63;37.97;;;10.90;99.90;;;;;;5059100;28;20052;-92
2020/12/01 01:02:51;;;;;;;61.10;37.70;;;10.90;99.90;;;;;;5058559;28;20344;-92
2020/12/01 01:05:18;;;;;;;62.80;37.78;;;10.90;99.90;;;;;;5071366;28;20052;-92
2020/12/01 01:07:45;;;;;;;62.97;38.38;;;11.00;99.90;;;;;;5062476;28;20056;-92
2020/12/01 01:10:18;;;;;;;64.97;38.65;;;11.00;99.90;;;;;;5070038;28;20405;-92
2020/12/01 01:12:45;;;;;;;60.58;36.03;;;11.00;99.90;;;;;;5069792;28;20044;-91
2020/12/01 01:15:13;;;;;;;60.55;37.53;;;11.00;99.90;;;;;;5070707;28;20091;-93
2020/12/01 01:17:41;;;;;;;63.15;36.72;;;11.00;99.90;;;;;;5073847;28;20068;-92
2020/12/01 01:20:10;;;;;;;63.85;37.85;;;11.00;99.90;;;;;;5074603;28;20101;-92
2020/12/01 01:22:38;;;;;;;57.90;34.80;;;11.00;99.90;;;;;;5073594;28;20433;-92
2020/12/01 01:25:06;;;;;;;59.03;34.67;;;11.00;99.90;;;;;;5069833;28;20052;-92
2020/12/01 01:27:34;;;;;;;56.92;33.20;;;11.10;99.90;;;;;;5069146;28;20052;-93
2020/12/01 01:30:03;;;;;;;56.70;31.42;;;11.10;99.90;;;;;;5073787;28;20047;-92
2020/12/01 01:32:31;;;;;;;47.75;30.55;;;11.10;99.90;;;;;;5057837;28;20059;-92
2020/12/01 01:34:58;;;;;;;47.60;29.88;;;11.10;99.90;;;;;;5060059;28;20060;-92
2020/12/01 01:37:26;;;;;;;48.17;28.63;;;11.10;99.90;;;;;;5062596;28;20110;-92
2020/12/01 01:39:53;;;;;;;46.20;28.45;;;11.10;99.90;;;;;;5062246;28;20569;-92
2020/12/01 01:42:21;;;;;;;38.47;26.00;;;11.10;99.90;;;;;;5057868;28;20052;-93
2020/12/01 01:44:47;;;;;;;37.95;24.05;;;11.10;99.90;;;;;;5073671;28;20052;-92
2020/12/01 01:47:44;;;;;;;38.28;24.10;;;11.10;99.90;;;;;;5074102;28;20064;-92
2020/12/01 01:50:18;;;;;;;36.33;21.90;;;11.10;99.90;;;;;;5066796;28;20051;-92
2020/12/01 01:52:49;;;;;;;29.05;19.95;;;11.10;99.90;;;;;;5069398;28;20106;-93
2020/12/01 01:55:22;;;;;;;30.80;21.05;;;11.10;99.90;;;;;;5065502;28;20052;-93
2020/12/01 01:57:54;;;;;;;32.20;20.50;;;11.10;99.90;;;;;;5062154;28;20044;-92
2020/12/01 02:00:58;;;;;;;38.60;21.42;;;11.10;99.90;;;;;;5060843;28;20137;-92
2020/12/01 02:03:30;;;;;;;31.13;19.92;;;11.10;99.90;;;;;;5063008;28;20040;-92
2020/12/01 02:05:58;;;;;;;28.00;20.17;;;11.10;99.90;;;;;;5057877;28;20048;-92
2020/12/01 02:08:26;;;;;;;28.40;19.42;;;11.10;99.90;;;;;;5070736;28;20056;-92
2020/12/01 02:10:55;;;;;;;30.13;18.83;;;11.10;99.90;;;;;;5060442;28;20060;-92
2020/12/01 02:13:43;;;;;;;28.83;18.95;;;11.10;99.90;;;;;;5061600;28;20055;-92
2020/12/01 02:16:11;;;;;;;31.25;18.38;;;11.10;99.90;;;;;;5064175;28;20409;-92
2020/12/01 02:18:39;;;;;;;25.10;16.63;;;11.10;99.90;;;;;;5068612;28;20470;-92
2020/12/01 02:21:39;;;;;;;27.90;16.88;;;11.10;99.90;;;;;;5073307;28;20048;-93
2020/12/01 02:24:20;;;;;;;27.58;16.27;;;11.00;99.90;;;;;;5057149;28;20060;-93
2020/12/01 02:26:56;;;;;;;25.33;15.23;;;11.00;99.90;;;;;;5057498;28;20056;-93
2020/12/01 02:29:28;;;;;;;23.88;14.25;;;11.00;99.90;;;;;;5070437;28;20052;-93
2020/12/01 02:31:57;;;;;;;25.42;14.15;;;11.00;99.90;;;;;;5059988;28;20052;-93
2020/12/01 02:34:32;;;;;;;24.17;13.40;;;11.00;99.90;;;;;;5061382;28;20060;-92
2020/12/01 02:37:00;;;;;;;22.77;14.38;;;11.00;99.90;;;;;;5066791;28;20482;-92
2020/12/01 02:39:28;;;;;;;22.30;13.15;;;11.00;99.90;;;;;;5073128;28;20470;-92
2020/12/01 02:42:00;;;;;;;24.38;12.20;;;11.00;99.90;;;;;;5071973;28;20385;-93
2020/12/01 02:44:28;;;;;;;24.17;11.85;;;11.00;99.90;;;;;;5071206;28;20110;-92
2020/12/01 02:46:59;;;;;;;21.00;11.82;;;11.00;99.90;;;;;;5053187;28;20124;-92
2020/12/01 02:49:26;;;;;;;17.30;11.00;;;11.00;99.90;;;;;;5063657;28;20079;-93
2020/12/01 02:51:54;;;;;;;19.52;10.77;;;11.00;99.90;;;;;;5068336;28;20070;-93
2020/12/01 02:54:22;;;;;;;25.38;10.57;;;11.00;99.90;;;;;;5068404;28;20045;-92
2020/12/01 02:56:49;;;;;;;14.27;8.43;;;11.00;99.90;;;;;;5075917;28;20094;-93
2020/12/01 02:59:16;;;;;;;20.10;8.20;;;11.00;99.90;;;;;;5061167;28;20049;-93
2020/12/01 03:01:44;;;;;;;14.85;8.52;;;11.00;99.90;;;;;;5077742;28;20405;-93
2020/12/01 03:04:13;;;;;;;15.75;8.25;;;11.00;99.90;;;;;;5065317;28;20052;-93
2020/12/01 03:06:40;;;;;;;20.42;7.90;;;11.10;99.90;;;;;;5065286;28;20049;-93
2020/12/01 03:09:11;;;;;;;16.00;7.78;;;11.10;99.90;;;;;;5060368;28;20064;-93
2020/12/01 03:11:38;;;;;;;18.02;8.20;;;11.10;99.90;;;;;;5076358;28;20139;-92
2020/12/01 03:14:06;;;;;;;13.35;7.68;;;11.10;99.90;;;;;;5062259;28;20057;-93
2020/12/01 03:16:33;;;;;;;18.58;7.10;;;11.10;99.90;;;;;;5064994;28;20061;-93
2020/12/01 03:19:00;;;;;;;15.73;6.60;;;11.10;99.90;;;;;;5064807;28;20053;-92
2020/12/01 03:21:27;;;;;;;18.08;6.40;;;11.10;99.90;;;;;;5060987;28;20079;-92
2020/12/01 03:23:55;;;;;;;16.92;6.85;;;11.10;99.90;;;;;;5075742;28;20047;-93
2020/12/01 03:26:23;;;;;;;24.58;6.85;;;11.20;99.90;;;;;;5076902;28;20398;-93
2020/12/01 03:28:51;;;;;;;18.02;6.82;;;11.20;99.90;;;;;;5071554;28;20090;-93
2020/12/01 03:31:22;;;;;;;19.98;6.63;;;11.20;99.90;;;;;;5068264;28;20079;-93
2020/12/01 03:33:50;;;;;;;17.40;6.63;;;11.10;99.90;;;;;;5064921;28;20056;-93
2020/12/01 03:36:19;;;;;;;13.73;6.65;;;11.20;99.90;;;;;;5075191;28;20062;-92
2020/12/01 03:38:45;;;;;;;22.50;6.95;;;11.20;99.90;;;;;;5060549;28;20040;-93
2020/12/01 03:41:14;;;;;;;15.68;6.68;;;11.20;99.90;;;;;;5072446;28;20539;-93
2020/12/01 03:43:41;;;;;;;15.77;6.28;;;11.20;99.90;;;;;;5064630;28;20052;-93
2020/12/01 03:46:09;;;;;;;14.40;6.97;;;11.30;99.90;;;;;;5064060;28;20543;-92
2020/12/01 03:48:37;;;;;;;18.77;6.60;;;11.20;99.90;;;;;;5062628;28;20053;-93
2020/12/01 03:51:04;;;;;;;16.48;5.95;;;11.30;99.90;;;;;;5075391;28;20128;-93
2020/12/01 03:53:31;;;;;;;21.50;6.68;;;11.30;99.90;;;;;;5059539;28;20049;-93
2020/12/01 03:55:58;;;;;;;20.45;6.45;;;11.30;99.90;;;;;;5070929;28;20049;-92
2020/12/01 03:58:25;;;;;;;19.20;6.78;;;11.30;99.90;;;;;;5069024;28;20041;-93
2020/12/01 04:00:53;;;;;;;22.55;7.38;;;11.30;99.90;;;;;;5068653;28;20141;-94
2020/12/01 04:03:22;;;;;;;23.55;6.82;;;11.30;99.90;;;;;;5059960;28;20064;-93
2020/12/01 04:05:49;;;;;;;;;;;11.20;99.90;;;;;;5075846;28;20131;-94
2020/12/01 04:08:16;;;;;;;15.13;5.85;;;11.20;99.90;;;;;;5071492;28;19921;-92
2020/12/01 04:10:43;;;;;;;16.35;5.90;;;11.20;99.90;;;;;;5071221;28;20056;-93
2020/12/01 04:13:11;;;;;;;15.60;4.80;;;11.20;99.90;;;;;;5070830;28;20045;-93
2020/12/01 04:15:38;;;;;;;15.70;4.65;;;11.20;99.90;;;;;;5072355;28;20071;-91
2020/12/01 04:18:05;;;;;;;14.10;4.55;;;11.20;99.90;;;;;;5061613;28;20064;-93
2020/12/01 04:20:33;;;;;;;15.05;4.20;;;11.20;99.90;;;;;;5059151;28;20433;-93
2020/12/01 04:23:00;;;;;;;12.82;4.18;;;11.20;99.90;;;;;;5062125;28;20067;-93
2020/12/01 04:25:27;;;;;;;11.70;4.10;;;11.20;99.90;;;;;;5068186;28;20503;-92
2020/12/01 04:27:56;;;;;;;14.43;4.57;;;11.20;99.90;;;;;;5070186;28;20087;-93
2020/12/01 04:30:24;;;;;;;12.95;4.65;;;11.20;99.90;;;;;;5074197;28;20045;-92
2020/12/01 04:32:53;;;;;;;14.23;4.40;;;11.20;99.90;;;;;;5059497;28;20060;-92
2020/12/01 04:35:22;;;;;;;15.13;4.30;;;11.20;99.90;;;;;;5058817;28;20057;-92
2020/12/01 04:37:51;;;;;;;10.13;4.65;;;11.20;99.90;;;;;;5070378;28;20394;-92
2020/12/01 04:40:25;;;;;;;16.90;5.32;;;11.20;99.90;;;;;;5066245;28;20056;-93
2020/12/01 04:43:01;;;;;;;11.82;4.50;;;11.20;99.90;;;;;;5063533;28;20048;-92
2020/12/01 04:45:29;;;;;;;13.02;4.00;;;11.20;99.90;;;;;;5073435;28;20053;-92
2020/12/01 04:48:25;;;;;;;14.40;4.30;;;11.20;99.90;;;;;;5074615;28;20041;-92
2020/12/01 04:50:59;;;;;;;7.05;3.78;;;11.20;99.90;;;;;;5071572;28;20056;-93
2020/12/01 04:53:56;;;;;;;9.27;4.00;;;11.20;99.90;;;;;;5056014;28;20045;-92
2020/12/01 04:56:36;;;;;;;12.57;3.22;;;11.10;99.90;;;;;;5071747;28;20052;-92
2020/12/01 04:59:15;;;;;;;6.32;3.03;;;11.10;99.90;;;;;;5056643;28;20136;-92
2020/12/01 05:01:55;;;;;;;12.25;3.53;;;11.10;99.90;;;;;;5061842;28;20061;-92
2020/12/01 05:04:25;;;;;;;;;;;11.10;99.90;;;;;;5063405;28;20060;-92
2020/12/01 05:07:17;;;;;;;6.35;2.65;;;11.00;99.90;;;;;;5068308;28;20358;-92
2020/12/01 05:09:51;;;;;;;6.68;3.03;;;11.00;99.90;;;;;;5074158;28;20044;-92
2020/12/01 05:12:21;;;;;;;5.57;2.42;;;11.00;99.90;;;;;;5070702;28;20115;-92
2020/12/01 05:14:57;;;;;;;6.80;2.63;;;11.00;99.90;;;;;;5059576;28;20044;-92
2020/12/01 05:17:53;;;;;;;8.32;3.22;;;11.00;99.90;;;;;;5072671;28;20044;-93
2020/12/01 05:20:22;;;;;;;7.80;3.10;;;11.00;99.90;;;;;;5070962;28;20056;-93
2020/12/01 05:22:53;;;;;;;9.57;3.33;;;11.00;99.90;;;;;;5062507;28;20049;-92
2020/12/01 05:25:30;;;;;;;11.20;3.50;;;10.90;99.90;;;;;;5071053;28;20157;-93
2020/12/01 05:28:17;;;;;;;6.32;3.00;;;10.90;99.90;;;;;;5070071;28;20048;-93
2020/12/01 05:30:44;;;;;;;7.20;3.60;;;10.90;99.90;;;;;;5070139;28;20045;-92
2020/12/01 05:33:26;;;;;;;6.53;3.15;;;10.90;99.90;;;;;;5070572;28;20146;-92
2020/12/01 05:36:30;;;;;;;6.53;3.05;;;10.90;99.90;;;;;;5058486;28;20067;-92
2020/12/01 05:39:05;;;;;;;5.90;2.85;;;10.90;99.90;;;;;;5054947;28;20048;-93
2020/12/01 05:41:37;;;;;;;8.68;3.40;;;10.90;99.90;;;;;;5072651;28;20423;-93
2020/12/01 05:44:18;;;;;;;4.82;2.95;;;10.90;99.90;;;;;;5069786;28;20093;-93
2020/12/01 05:47:05;;;;;;;6.05;2.75;;;10.90;99.90;;;;;;5071270;28;20149;-93
2020/12/01 05:49:38;;;;;;;7.55;2.63;;;10.90;99.90;;;;;;5063708;28;20057;-92
2020/12/01 05:52:16;;;;;;;5.22;2.80;;;10.90;99.90;;;;;;5068645;28;20059;-92
2020/12/01 05:54:46;;;;;;;6.07;2.55;;;10.80;99.90;;;;;;5070470;28;20049;-92
2020/12/01 05:57:20;;;;;;;5.07;2.45;;;10.80;99.90;;;;;;5061499;28;20472;-93
2020/12/01 06:00:01;;;;;;;7.43;2.00;;;10.90;99.90;;;;;;5073635;28;20075;-92
2020/12/01 06:02:47;;;;;;;5.80;2.25;;;10.80;99.90;;;;;;5075418;28;20052;-93
2020/12/01 06:05:20;;;;;;;7.20;2.03;;;10.80;99.90;;;;;;5059680;28;20056;-93
2020/12/01 06:07:50;;;;;;;6.65;2.00;;;10.80;99.90;;;;;;5069569;28;20048;-94
2020/12/01 06:10:23;;;;;;;;;;;10.80;99.90;;;;;;5066096;28;20102;-93
2020/12/01 06:13:13;;;;;;;8.40;2.28;;;10.80;99.90;;;;;;5061383;28;19924;-92
2020/12/01 06:15:53;;;;;;;5.22;2.13;;;10.80;99.90;;;;;;5073273;28;20048;-93
2020/12/01 06:18:32;;;;;;;6.65;2.38;;;10.80;99.90;;;;;;5072944;28;20180;-89
2020/12/01 06:21:06;;;;;;;6.10;2.50;;;10.80;99.90;;;;;;5060591;28;20564;-94
2020/12/01 06:23:58;;;;;;;9.32;2.72;;;10.80;99.90;;;;;;5076137;28;20054;-93
2020/12/01 06:27:03;;;;;;;8.15;2.15;;;10.80;99.90;;;;;;5072693;28;20080;-93
2020/12/01 06:29:36;;;;;;;6.07;2.25;;;10.80;99.90;;;;;;5073849;28;20524;-93
2020/12/01 06:32:23;;;;;;;8.32;2.30;;;10.80;99.90;;;;;;5059425;28;20056;-94
2020/12/01 06:35:10;;;;;;;;;;;10.80;99.90;;;;;;5073787;28;20064;-94
2020/12/01 06:37:57;;;;;;;8.32;2.38;;;10.80;99.90;;;;;;5071974;28;19927;-93
2020/12/01 06:40:38;;;;;;;9.40;2.47;;;10.80;99.90;;;;;;5073538;28;20079;-94
2020/12/01 06:43:45;;;;;;;8.95;1.92;;;10.80;99.90;;;;;;5067285;28;20348;-94
2020/12/01 06:46:45;;;;;;;11.48;2.30;;;10.80;99.90;;;;;;5069294;28;20053;-94
2020/12/01 06:49:23;;;;;;;7.97;2.15;;;10.80;99.90;;;;;;5069973;28;20483;-93
2020/12/01 06:51:55;;;;;;;9.90;2.20;;;10.80;99.90;;;;;;5069251;28;20041;-92
2020/12/01 06:54:22;;;;;;;7.70;2.10;;;10.80;99.90;;;;;;5061319;28;20054;-93
2020/12/01 06:57:17;;;;;;;11.30;2.28;;;10.80;99.90;;;;;;5057874;28;20044;-92
2020/12/01 06:59:46;;;;;;;13.05;2.47;;;10.80;99.90;;;;;;5045410;28;20048;-93
2020/12/01 07:02:18;;;;;;;6.35;2.05;;;10.80;99.90;;;;;;5056617;28;20135;-94
2020/12/01 07:04:47;;;;;;;10.95;2.38;;;10.80;99.90;;;;;;5067804;28;20051;-93
2020/12/01 07:07:28;;;;;;;12.40;2.10;;;10.80;99.90;;;;;;5067871;28;20048;-93
2020/12/01 07:09:57;;;;;;;8.35;2.10;;;10.70;99.90;;;;;;5068984;28;20048;-93
2020/12/01 07:12:36;;;;;;;10.13;2.38;;;10.70;99.90;;;;;;5072652;28;20484;-93
2020/12/01 07:15:25;;;;;;;11.75;2.30;;;10.70;99.90;;;;;;5072715;28;20045;-93
2020/12/01 07:18:09;;;;;;;8.85;2.17;;;10.70;99.90;;;;;;5056383;28;20064;-92
2020/12/01 07:20:41;;;;;;;8.18;2.40;;;10.70;99.90;;;;;;5071392;28;20049;-92
2020/12/01 07:23:16;;;;;;;9.48;2.30;;;10.70;99.90;;;;;;5072850;28;20060;-92
2020/12/01 07:26:07;;;;;;;10.13;2.40;;;10.70;99.90;;;;;;5072747;28;20060;-92
2020/12/01 07:29:02;;;;;;;10.90;2.83;;;10.70;99.90;;;;;;5061963;28;20068;-92
2020/12/01 07:31:35;;;;;;;7.97;1.95;;;10.70;99.90;;;;;;5060746;28;20533;-92
2020/12/01 07:34:23;;;;;;;7.05;2.38;;;10.70;99.90;;;;;;5063413;28;20056;-92
2020/12/01 07:36:56;;;;;;;15.30;2.65;;;10.70;99.90;;;;;;5072741;28;20049;-92
2020/12/01 07:39:32;;;;;;;10.45;2.45;;;10.70;99.90;;;;;;5071747;28;20053;-92
2020/12/01 07:42:04;;;;;;;13.88;2.97;;;10.70;99.90;;;;;;5061138;28;20057;-92
2020/12/01 07:44:37;;;;;;;10.85;2.65;;;10.70;99.90;;;;;;5062269;28;20049;-92
2020/12/01 07:47:15;;;;;;;12.82;2.53;;;10.70;99.90;;;;;;5093643;28;20041;-92
2020/12/01 07:49:43;;;;;;;15.32;2.75;;;10.70;99.90;;;;;;5070860;28;20056;-92
2020/12/01 07:52:29;;;;;;;8.75;2.60;;;10.70;99.90;;;;;;5070270;28;20080;-91
2020/12/01 07:55:26;;;;;;;10.43;2.53;;;10.70;99.90;;;;;;5071720;28;20049;-92
2020/12/01 07:58:18;;;;;;;7.28;2.40;;;10.70;99.90;;;;;;5065367;28;20049;-92
2020/12/01 08:00:51;;;;;;;9.60;2.60;;;10.70;99.90;;;;;;5070540;28;20049;-92
2020/12/01 08:03:38;;;;;;;10.57;2.80;;;10.70;99.90;;;;;;5060582;28;20045;-92
2020/12/01 08:06:14;;;;;;;13.15;2.72;;;10.70;99.90;;;;;;5058425;28;20060;-91
2020/12/01 08:08:44;;;;;;;10.80;2.72;;;10.70;99.90;;;;;;5068906;28;20056;-93
2020/12/01 08:11:16;;;;;;;16.85;2.50;;;10.70;99.90;;;;;;5070552;28;20049;-93
2020/12/01 08:13:50;;;;;;;9.77;2.80;;;10.60;99.90;;;;;;5066642;28;20382;-95
2020/12/01 08:16:28;;;;;;;8.60;2.08;;;10.60;99.90;;;;;;5061996;28;20084;-92
2020/12/01 08:19:01;;;;;;;15.23;2.55;;;10.60;99.90;;;;;;5067096;28;20044;-93
2020/12/01 08:21:43;;;;;;;10.90;2.53;;;10.60;99.90;;;;;;5066545;28;20049;-93
2020/12/01 08:24:25;;;;;;;7.93;2.13;;;10.60;99.90;;;;;;5068659;28;20056;-92
2020/12/01 08:27:15;;;;;;;12.02;2.50;;;10.60;99.90;;;;;;5071308;28;20079;-92
2020/12/01 08:29:50;;;;;;;11.35;2.10;;;10.50;99.90;;;;;;5075116;28;20056;-93
2020/12/01 08:32:42;;;;;;;11.35;2.30;;;10.50;99.90;;;;;;5071482;28;20049;-93
2020/12/01 08:35:41;;;;;;;12.70;2.22;;;10.50;99.90;;;;;;5070790;28;20493;-92
2020/12/01 08:38:41;;;;;;;8.63;2.17;;;10.50;99.90;;;;;;5072291;28;20053;-92
2020/12/01 08:41:16;;;;;;;12.60;2.08;;;10.40;99.90;;;;;;5074386;28;20056;-93
2020/12/01 08:44:01;;;;;;;6.90;2.47;;;10.40;99.90;;;;;;5062488;28;20542;-92
2020/12/01 08:46:34;;;;;;;11.38;3.00;;;10.40;99.90;;;;;;5067539;28;20056;-92
2020/12/01 08:49:41;;;;;;;10.38;2.00;;;10.40;99.90;;;;;;5072538;28;20047;-92
2020/12/01 08:52:29;;;;;;;10.68;2.40;;;10.40;99.90;;;;;;5067329;28;20145;-93
2020/12/01 08:55:14;;;;;;;13.53;2.53;;;10.40;99.90;;;;;;5067517;28;20040;-93
2020/12/01 08:57:45;;;;;;;8.43;1.95;;;10.40;99.90;;;;;;5066065;28;20124;-92
2020/12/01 09:00:25;;;;;;;7.32;2.42;;;10.40;99.90;;;;;;5065965;28;20049;-92
2020/12/01 09:03:06;;;;;;;7.28;1.75;;;10.50;99.90;;;;;;5057855;28;20072;-92
2020/12/01 09:05:46;;;;;;;8.88;1.85;;;10.50;99.90;;;;;;5073422;28;20095;-92
2020/12/01 09:16:52;;;;;;;10.48;2.65;;;10.70;99.90;;;;;;5065415;28;20091;-92
2020/12/01 09:22:34;;;;;;;10.45;2.58;;;10.70;99.90;;;;;;5067173;28;20103;-92
2020/12/01 09:25:06;;;;;;;12.57;1.88;;;10.70;99.90;;;;;;5063309;28;20044;-92
2020/12/01 09:27:37;;;;;;;13.00;2.15;;;10.60;99.90;;;;;;5061722;28;20049;-92
2020/12/01 09:30:35;;;;;;;8.48;2.53;;;10.60;99.90;;;;;;5067047;28;20056;-92
2020/12/01 09:33:10;;;;;;;7.03;2.35;;;10.60;99.90;;;;;;5068269;28;20048;-92
2020/12/01 09:35:42;;;;;;;6.60;1.73;;;10.60;99.90;;;;;;5057323;28;20139;-92
2020/12/01 09:38:12;;;;;;;9.45;2.13;;;10.60;99.90;;;;;;5058213;28;20406;-93
2020/12/01 09:40:48;;;;;;;7.15;1.80;;;10.70;99.90;;;;;;5059266;28;20049;-92
2020/12/01 09:46:03;;;;;;;10.25;1.70;;;10.80;99.90;;;;;;5066317;28;20083;-93
2020/12/01 09:48:37;;;;;;;9.57;2.10;;;10.90;99.90;;;;;;5069246;28;20462;-92
2020/12/01 09:51:10;;;;;;;10.85;1.98;;;10.90;99.90;;;;;;5073707;28;20048;-92
2020/12/01 09:54:49;;;;;;;9.10;2.00;;;10.90;99.90;;;;;;5057190;28;20056;-92
2020/12/01 09:56:50;;;;;;;9.60;1.95;;;10.90;99.90;;;;;;5047590;28;20116;-92
2020/12/01 09:59:34;;;;;;;11.55;2.10;;;11.00;99.90;;;;;;5073738;28;20075;-92
2020/12/01 10:32:15;;;;;;;;;;;10.90;99.90;;;;;;5071373;28;20048;-93
2020/12/01 10:38:00;;;;;;;9.80;1.42;;;10.90;99.90;;;;;;5063362;28;20430;-93
2020/12/01 10:40:31;;;;;;;12.85;1.90;;;10.90;99.90;;;;;;5063036;28;20083;-93
2020/12/01 10:43:03;;;;;;;9.43;1.80;;;11.00;99.90;;;;;;5064429;28;20128;-92
2020/12/01 10:45:36;;;;;;;10.13;1.80;;;11.00;99.90;;;;;;5071310;28;20176;-91
2020/12/01 10:48:19;;;;;;;11.30;1.70;;;11.00;99.90;;;;;;5057124;28;20056;-92
2020/12/01 10:50:49;;;;;;;10.48;1.67;;;11.00;99.90;;;;;;5057036;28;20436;-92
2020/12/01 10:53:22;;;;;;;10.45;1.90;;;11.00;99.90;;;;;;5053189;28;20056;-92
2020/12/01 10:55:56;;;;;;;11.02;1.60;;;10.90;99.90;;;;;;5053547;28;20052;-92
2020/12/01 10:58:26;;;;;;;8.65;1.55;;;10.90;99.90;;;;;;5060852;28;20124;-92
2020/12/01 11:01:01;;;;;;;9.00;1.70;;;10.90;99.90;;;;;;5057938;28;20522;-92
2020/12/01 11:03:31;;;;;;;9.93;1.30;;;10.90;99.90;;;;;;5059390;28;20052;-92
2020/12/01 11:06:02;;;;;;;8.52;1.70;;;10.90;99.90;;;;;;5072856;28;20052;-92
2020/12/01 11:08:30;;;;;;;;;;;10.90;99.90;;;;;;5073120;28;20132;-92
2020/12/01 11:10:59;;;;;;;7.65;1.77;;;10.90;99.90;;;;;;5070078;28;20317;-91
2020/12/01 11:13:27;;;;;;;10.35;1.80;;;10.90;99.90;;;;;;5064416;28;20056;-94
2020/12/01 11:15:59;;;;;;;11.40;1.80;;;11.00;99.90;;;;;;5064204;28;20473;-92
2020/12/01 11:18:30;;;;;;;9.13;1.50;;;11.00;99.90;;;;;;5065505;28;20059;-92
2020/12/01 11:21:02;;;;;;;10.45;1.70;;;11.00;99.90;;;;;;5069640;28;20134;-92
2020/12/01 11:23:34;;;;;;;10.13;1.90;;;11.00;99.90;;;;;;5047431;28;20076;-92
2020/12/01 11:26:04;;;;;;;8.13;1.45;;;11.00;99.90;;;;;;5040793;28;20052;-92
2020/12/01 11:28:35;;;;;;;10.15;1.83;;;11.10;99.90;;;;;;5051050;28;20045;-92
2020/12/01 11:31:06;;;;;;;7.60;1.40;;;11.10;99.90;;;;;;5070930;28;20102;-92
2020/12/01 11:33:43;;;;;;;10.60;1.88;;;11.10;99.90;;;;;;5072409;28;20187;-92
2020/12/01 11:36:15;;;;;;;11.30;1.63;;;11.10;99.90;;;;;;5059274;28;20055;-92
2020/12/01 11:38:47;;;;;;;6.85;1.40;;;11.20;99.90;;;;;;5075752;28;20048;-92
2020/12/01 11:41:18;;;;;;;8.85;1.63;;;11.20;99.90;;;;;;5073963;28;20048;-92
2020/12/01 11:43:50;;;;;;;9.50;1.40;;;11.20;99.90;;;;;;5058499;28;20136;-92
2020/12/01 11:46:18;;;;;;;10.20;1.50;;;11.20;99.90;;;;;;5058793;28;20063;-90
2020/12/01 11:48:48;;;;;;;9.15;1.70;;;11.20;99.90;;;;;;5061877;28;20053;-91
2020/12/01 11:51:17;;;;;;;;;;;11.20;99.90;;;;;;5065628;28;20044;-91
2020/12/01 11:53:47;;;;;;;11.90;2.08;;;11.10;99.90;;;;;;5071179;28;20246;-92
2020/12/01 11:56:18;;;;;;;8.20;1.80;;;11.10;99.90;;;;;;5073481;28;20082;-92
2020/12/01 11:58:49;;;;;;;9.82;1.88;;;11.00;99.90;;;;;;5071564;28;20532;-90
2020/12/01 12:01:17;;;;;;;10.88;1.85;;;11.00;99.90;;;;;;5066240;28;20052;-89
2020/12/01 12:03:47;;;;;;;10.63;1.50;;;11.00;99.90;;;;;;5073924;28;20045;-92
2020/12/01 12:06:17;;;;;;;9.57;1.40;;;11.00;99.90;;;;;;5065635;28;20308;-91
2020/12/01 12:08:47;;;;;;;7.45;1.30;;;11.00;99.90;;;;;;5071951;28;20057;-84
2020/12/01 12:11:14;;;;;;;7.63;1.25;;;11.00;99.90;;;;;;5062171;28;20045;-84
2020/12/01 12:13:46;;;;;;;11.32;1.52;;;11.00;99.90;;;;;;5068099;28;20056;-92
2020/12/01 12:16:18;;;;;;;6.13;1.10;;;11.10;99.90;;;;;;5066456;28;20048;-91
2020/12/01 12:18:49;;;;;;;6.85;1.40;;;11.10;99.90;;;;;;5062133;28;20133;-91
2020/12/01 12:21:21;;;;;;;9.85;2.15;;;11.20;99.90;;;;;;5072103;28;20051;-91
2020/12/01 12:23:52;;;;;;;8.32;1.38;;;11.20;99.90;;;;;;5070948;28;20048;-91
2020/12/01 12:26:21;;;;;;;9.55;1.77;;;11.20;99.90;;;;;;5069857;28;20048;-91
2020/12/01 12:28:54;;;;;;;10.65;1.60;;;11.20;99.90;;;;;;5071661;28;20045;-91
2020/12/01 12:31:25;;;;;;;8.45;1.40;;;11.20;99.90;;;;;;5067952;28;20045;-91
2020/12/01 12:33:56;;;;;;;7.68;1.20;;;11.30;99.90;;;;;;5066361;28;20442;-92
2020/12/01 12:36:25;;;;;;;5.95;1.17;;;11.30;99.90;;;;;;5068301;28;20436;-91
2020/12/01 12:38:56;;;;;;;10.18;1.80;;;11.30;99.90;;;;;;5068889;28;20048;-92
2020/12/01 12:41:27;;;;;;;7.40;1.35;;;11.40;99.90;;;;;;5069554;28;20052;-91
2020/12/01 12:43:57;;;;;;;8.57;1.20;;;11.50;99.90;;;;;;5069625;28;20075;-90
2020/12/01 12:46:27;;;;;;;7.60;1.20;;;11.50;99.90;;;;;;5069342;28;20135;-91
2020/12/01 12:48:57;;;;;;;4.68;1.05;;;11.50;99.90;;;;;;5065807;28;20047;-93
2020/12/01 12:51:27;;;;;;;9.40;1.50;;;11.50;99.90;;;;;;5071559;28;20044;-92
2020/12/01 12:54:00;;;;;;;7.80;1.65;;;11.50;99.90;;;;;;5065467;28;20044;-93
2020/12/01 12:56:31;;;;;;;6.95;1.42;;;11.60;99.90;;;;;;5070884;28;20471;-93
2020/12/01 12:59:04;;;;;;;6.68;1.33;;;11.60;99.90;;;;;;5067109;28;20152;-92
2020/12/01 13:01:36;;;;;;;6.90;1.40;;;11.70;99.90;;;;;;5071830;28;20057;-91
2020/12/01 13:04:07;;;;;;;9.00;1.50;;;11.70;99.90;;;;;;5068321;28;20047;-92
2020/12/01 13:06:38;;;;;;;7.32;1.33;;;11.70;99.90;;;;;;5073731;28;20044;-90
2020/12/01 13:09:08;;;;;;;8.75;1.75;;;11.70;99.90;;;;;;5073974;28;20194;-91
2020/12/01 13:11:38;;;;;;;5.95;1.38;;;11.60;99.90;;;;;;5074409;28;20056;-91
2020/12/01 13:14:08;;;;;;;10.48;1.63;;;11.50;99.90;;;;;;5075881;28;20040;-91
2020/12/01 13:16:39;;;;;;;10.82;2.03;;;11.50;99.90;;;;;;5076012;28;20053;-91
2020/12/01 13:19:10;;;;;;;11.43;1.83;;;11.40;99.90;;;;;;5068466;28;20053;-92
2020/12/01 13:21:40;;;;;;;8.32;1.40;;;11.50;99.90;;;;;;5065169;28;20075;-92
2020/12/01 13:24:11;;;;;;;8.38;1.77;;;11.40;99.90;;;;;;5075708;28;20448;-92
2020/12/01 13:26:41;;;;;;;11.07;1.70;;;11.40;99.90;;;;;;5058894;28;20069;-92
2020/12/01 13:29:12;;;;;;;6.55;1.48;;;11.40;99.90;;;;;;5060851;28;20057;-92
2020/12/01 13:31:47;;;;;;;9.50;1.77;;;11.40;99.90;;;;;;5071922;28;20106;-91
2020/12/01 13:34:16;;;;;;;10.50;1.70;;;11.40;99.90;;;;;;5076006;28;20044;-91
2020/12/01 13:36:47;;;;;;;7.20;1.45;;;11.40;99.90;;;;;;5070486;28;20067;-91
2020/12/01 13:39:17;;;;;;;8.85;1.50;;;11.40;99.90;;;;;;5070807;28;20056;-91
2020/12/01 13:41:53;;;;;;;8.68;1.70;;;11.30;99.90;;;;;;5073316;28;20135;-91
2020/12/01 13:44:25;;;;;;;;;;;11.30;99.90;;;;;;5055497;28;20045;-91
2020/12/01 13:46:55;;;;;;;10.32;1.92;;;11.20;99.90;;;;;;5056378;28;20259;-91
2020/12/01 13:49:24;;;;;;;11.40;2.15;;;11.20;99.90;;;;;;5066227;28;20474;-91
2020/12/01 13:51:53;;;;;;;;;;;11.10;99.90;;;;;;5070424;28;20098;-92
2020/12/01 13:54:23;;;;;;;7.07;1.45;;;11.00;99.90;;;;;;5070194;28;19924;-91
2020/12/01 13:56:54;;;;;;;7.13;1.83;;;10.90;99.90;;;;;;5057567;28;20049;-92
2020/12/01 13:59:26;;;;;;;7.80;1.50;;;10.90;99.90;;;;;;5070333;28;20048;-92
2020/12/01 14:02:11;;;;;;;8.88;1.60;;;10.90;99.90;;;;;;5063098;28;20052;-96